sensor_id;sensor_type;location;lat;lon;timestamp;P1;durP1;ratioP1;P2;durP2;ratioP2
37203;SDS011;23098;48.054;10.636;2022-12-20T00:00:50;8.88;;;5.55;;
37203;SDS011;23098;48.054;10.636;2022-12-20T00:03:16;10.30;;;5.88;;
37203;SDS011;23098;48.054;10.636;2022-12-20T00:05:42;10.48;;;6.00;;
37203;SDS011;23098;48.054;10.636;2022-12-20T00:08:09;9.98;;;5.93;;
37203;SDS011;23098;48.054;10.636;2022-12-20T00:10:39;10.50;;;6.28;;
37203;SDS011;23098;48.054;10.636;2022-12-20T00:15:32;10.10;;;6.20;;
37203;SDS011;23098;48.054;10.636;2022-12-20T00:17:59;11.85;;;6.13;;
37203;SDS011;23098;48.054;10.636;2022-12-20T00:20:27;12.98;;;5.70;;
37203;SDS011;23098;48.054;10.636;2022-12-20T00:22:53;9.93;;;5.55;;
37203;SDS011;23098;48.054;10.636;2022-12-20T00:25:18;9.30;;;5.80;;
37203;SDS011;23098;48.054;10.636;2022-12-20T00:27:45;10.20;;;5.68;;
37203;SDS011;23098;48.054;10.636;2022-12-20T00:30:12;8.55;;;5.22;;
37203;SDS011;23098;48.054;10.636;2022-12-20T00:32:38;10.10;;;5.80;;
37203;SDS011;23098;48.054;10.636;2022-12-20T00:35:04;10.30;;;5.93;;
37203;SDS011;23098;48.054;10.636;2022-12-20T00:37:30;8.75;;;4.55;;
37203;SDS011;23098;48.054;10.636;2022-12-20T00:39:55;9.73;;;5.32;;
37203;SDS011;23098;48.054;10.636;2022-12-20T00:42:21;10.30;;;5.40;;
37203;SDS011;23098;48.054;10.636;2022-12-20T00:44:47;8.35;;;4.88;;
37203;SDS011;23098;48.054;10.636;2022-12-20T00:47:12;8.32;;;4.88;;
37203;SDS011;23098;48.054;10.636;2022-12-20T00:49:38;9.07;;;5.13;;
37203;SDS011;23098;48.054;10.636;2022-12-20T00:52:06;8.23;;;4.85;;
37203;SDS011;23098;48.054;10.636;2022-12-20T00:54:32;7.50;;;4.82;;
37203;SDS011;23098;48.054;10.636;2022-12-20T00:56:57;6.10;;;4.10;;
37203;SDS011;23098;48.054;10.636;2022-12-20T00:59:23;6.68;;;4.45;;
37203;SDS011;23098;48.054;10.636;2022-12-20T01:01:50;7.57;;;4.50;;
37203;SDS011;23098;48.054;10.636;2022-12-20T01:04:16;8.27;;;4.78;;
37203;SDS011;23098;48.054;10.636;2022-12-20T01:06:42;7.18;;;4.50;;
37203;SDS011;23098;48.054;10.636;2022-12-20T01:09:18;7.03;;;4.70;;
37203;SDS011;23098;48.054;10.636;2022-12-20T01:11:47;7.13;;;4.30;;
37203;SDS011;23098;48.054;10.636;2022-12-20T01:14:18;6.82;;;4.35;;
37203;SDS011;23098;48.054;10.636;2022-12-20T01:16:46;9.80;;;4.50;;
37203;SDS011;23098;48.054;10.636;2022-12-20T02:16:56;7.25;;;3.40;;
37203;SDS011;23098;48.054;10.636;2022-12-20T02:28:09;5.80;;;3.80;;
37203;SDS011;23098;48.054;10.636;2022-12-20T02:30:49;6.20;;;3.92;;
37203;SDS011;23098;48.054;10.636;2022-12-20T02:33:19;5.13;;;3.10;;
37203;SDS011;23098;48.054;10.636;2022-12-20T02:35:49;5.10;;;3.15;;
37203;SDS011;23098;48.054;10.636;2022-12-20T02:41:03;5.10;;;3.17;;
37203;SDS011;23098;48.054;10.636;2022-12-20T02:43:43;5.45;;;3.40;;
37203;SDS011;23098;48.054;10.636;2022-12-20T02:46:32;5.43;;;3.47;;
37203;SDS011;23098;48.054;10.636;2022-12-20T02:49:04;5.80;;;3.40;;
37203;SDS011;23098;48.054;10.636;2022-12-20T02:51:35;9.65;;;3.47;;
37203;SDS011;23098;48.054;10.636;2022-12-20T02:54:02;5.95;;;3.42;;
37203;SDS011;23098;48.054;10.636;2022-12-20T02:56:31;5.03;;;3.40;;
37203;SDS011;23098;48.054;10.636;2022-12-20T02:59:10;4.80;;;3.35;;
37203;SDS011;23098;48.054;10.636;2022-12-20T03:01:48;5.07;;;3.22;;
37203;SDS011;23098;48.054;10.636;2022-12-20T03:04:17;7.25;;;3.20;;
37203;SDS011;23098;48.054;10.636;2022-12-20T03:09:32;7.60;;;3.40;;
37203;SDS011;23098;48.054;10.636;2022-12-20T03:12:03;6.43;;;3.33;;
37203;SDS011;23098;48.054;10.636;2022-12-20T03:14:31;5.50;;;3.30;;
37203;SDS011;23098;48.054;10.636;2022-12-20T03:16:56;5.75;;;2.80;;
37203;SDS011;23098;48.054;10.636;2022-12-20T03:19:23;5.60;;;3.05;;
37203;SDS011;23098;48.054;10.636;2022-12-20T03:21:53;6.43;;;3.22;;
37203;SDS011;23098;48.054;10.636;2022-12-20T03:24:24;4.28;;;3.03;;
37203;SDS011;23098;48.054;10.636;2022-12-20T03:26:50;4.47;;;2.90;;
37203;SDS011;23098;48.054;10.636;2022-12-20T03:29:20;5.95;;;3.40;;
37203;SDS011;23098;48.054;10.636;2022-12-20T03:31:47;4.68;;;3.10;;
37203;SDS011;23098;48.054;10.636;2022-12-20T03:34:12;5.20;;;2.95;;
37203;SDS011;23098;48.054;10.636;2022-12-20T03:36:48;4.32;;;3.00;;
37203;SDS011;23098;48.054;10.636;2022-12-20T03:39:28;5.75;;;3.00;;
37203;SDS011;23098;48.054;10.636;2022-12-20T03:41:58;5.47;;;3.00;;
37203;SDS011;23098;48.054;10.636;2022-12-20T03:44:23;4.85;;;2.83;;
37203;SDS011;23098;48.054;10.636;2022-12-20T03:46:51;4.55;;;3.15;;
37203;SDS011;23098;48.054;10.636;2022-12-20T03:49:17;4.93;;;3.10;;
37203;SDS011;23098;48.054;10.636;2022-12-20T03:51:45;6.38;;;3.05;;
37203;SDS011;23098;48.054;10.636;2022-12-20T03:54:11;5.10;;;2.90;;
37203;SDS011;23098;48.054;10.636;2022-12-20T03:56:36;4.68;;;2.90;;
37203;SDS011;23098;48.054;10.636;2022-12-20T03:59:09;4.25;;;2.75;;
37203;SDS011;23098;48.054;10.636;2022-12-20T04:01:45;4.18;;;2.60;;
37203;SDS011;23098;48.054;10.636;2022-12-20T04:04:12;6.72;;;2.78;;
37203;SDS011;23098;48.054;10.636;2022-12-20T04:06:38;3.95;;;2.70;;
37203;SDS011;23098;48.054;10.636;2022-12-20T04:09:05;4.32;;;2.70;;
37203;SDS011;23098;48.054;10.636;2022-12-20T04:11:34;4.13;;;2.60;;
37203;SDS011;23098;48.054;10.636;2022-12-20T04:14:01;4.72;;;2.67;;
37203;SDS011;23098;48.054;10.636;2022-12-20T04:16:32;5.68;;;2.70;;
37203;SDS011;23098;48.054;10.636;2022-12-20T04:18:59;4.47;;;2.50;;
37203;SDS011;23098;48.054;10.636;2022-12-20T04:21:29;7.10;;;3.17;;
37203;SDS011;23098;48.054;10.636;2022-12-20T04:23:56;7.35;;;3.00;;
37203;SDS011;23098;48.054;10.636;2022-12-20T04:26:23;7.40;;;3.42;;
37203;SDS011;23098;48.054;10.636;2022-12-20T04:28:49;6.38;;;3.50;;
37203;SDS011;23098;48.054;10.636;2022-12-20T04:31:16;10.73;;;4.20;;
37203;SDS011;23098;48.054;10.636;2022-12-20T04:33:44;7.18;;;3.80;;
37203;SDS011;23098;48.054;10.636;2022-12-20T04:36:13;27.42;;;11.98;;
37203;SDS011;23098;48.054;10.636;2022-12-20T04:38:40;10.95;;;5.07;;
37203;SDS011;23098;48.054;10.636;2022-12-20T04:41:08;7.95;;;4.05;;
37203;SDS011;23098;48.054;10.636;2022-12-20T04:43:34;5.90;;;3.13;;
37203;SDS011;23098;48.054;10.636;2022-12-20T04:46:01;4.05;;;2.67;;
37203;SDS011;23098;48.054;10.636;2022-12-20T04:48:31;6.80;;;2.92;;
37203;SDS011;23098;48.054;10.636;2022-12-20T04:51:02;3.40;;;2.60;;
37203;SDS011;23098;48.054;10.636;2022-12-20T04:53:35;4.00;;;2.40;;
37203;SDS011;23098;48.054;10.636;2022-12-20T04:56:47;3.45;;;2.53;;
37203;SDS011;23098;48.054;10.636;2022-12-20T04:59:07;4.25;;;2.25;;
37203;SDS011;23098;48.054;10.636;2022-12-20T05:01:32;4.60;;;2.90;;
37203;SDS011;23098;48.054;10.636;2022-12-20T05:03:58;3.30;;;2.47;;
37203;SDS011;23098;48.054;10.636;2022-12-20T05:06:23;5.22;;;2.53;;
37203;SDS011;23098;48.054;10.636;2022-12-20T05:08:49;3.83;;;2.50;;
37203;SDS011;23098;48.054;10.636;2022-12-20T05:11:15;4.05;;;2.53;;
37203;SDS011;23098;48.054;10.636;2022-12-20T05:13:40;3.15;;;2.60;;
37203;SDS011;23098;48.054;10.636;2022-12-20T05:16:06;4.32;;;2.97;;
37203;SDS011;23098;48.054;10.636;2022-12-20T05:18:32;4.18;;;2.30;;
37203;SDS011;23098;48.054;10.636;2022-12-20T05:20:58;3.28;;;2.55;;
37203;SDS011;23098;48.054;10.636;2022-12-20T05:23:43;3.35;;;2.20;;
37203;SDS011;23098;48.054;10.636;2022-12-20T05:26:29;7.85;;;3.88;;
37203;SDS011;23098;48.054;10.636;2022-12-20T05:28:57;5.32;;;2.90;;
37203;SDS011;23098;48.054;10.636;2022-12-20T05:31:23;4.65;;;2.47;;
37203;SDS011;23098;48.054;10.636;2022-12-20T05:33:48;4.20;;;2.35;;
37203;SDS011;23098;48.054;10.636;2022-12-20T05:36:14;3.38;;;2.30;;
37203;SDS011;23098;48.054;10.636;2022-12-20T05:38:39;4.60;;;2.05;;
37203;SDS011;23098;48.054;10.636;2022-12-20T05:41:05;4.15;;;2.47;;
37203;SDS011;23098;48.054;10.636;2022-12-20T05:43:31;3.53;;;2.10;;
37203;SDS011;23098;48.054;10.636;2022-12-20T05:58:54;4.25;;;2.40;;
37203;SDS011;23098;48.054;10.636;2022-12-20T06:11:40;5.55;;;3.38;;
37203;SDS011;23098;48.054;10.636;2022-12-20T06:14:06;4.13;;;2.35;;
37203;SDS011;23098;48.054;10.636;2022-12-20T06:16:32;5.38;;;3.20;;
37203;SDS011;23098;48.054;10.636;2022-12-20T07:28:20;7.07;;;2.92;;
37203;SDS011;23098;48.054;10.636;2022-12-20T07:30:51;3.80;;;2.53;;
37203;SDS011;23098;48.054;10.636;2022-12-20T07:33:20;4.65;;;3.00;;
37203;SDS011;23098;48.054;10.636;2022-12-20T08:05:37;8.00;;;4.88;;
37203;SDS011;23098;48.054;10.636;2022-12-20T08:10:33;6.82;;;4.55;;
37203;SDS011;23098;48.054;10.636;2022-12-20T08:15:40;5.05;;;2.85;;
37203;SDS011;23098;48.054;10.636;2022-12-20T08:18:07;3.90;;;2.70;;
37203;SDS011;23098;48.054;10.636;2022-12-20T08:20:33;5.00;;;3.03;;
37203;SDS011;23098;48.054;10.636;2022-12-20T08:23:10;7.13;;;3.05;;
37203;SDS011;23098;48.054;10.636;2022-12-20T08:25:36;6.22;;;3.42;;
37203;SDS011;23098;48.054;10.636;2022-12-20T08:28:01;6.82;;;3.60;;
37203;SDS011;23098;48.054;10.636;2022-12-20T08:30:28;5.88;;;3.33;;
37203;SDS011;23098;48.054;10.636;2022-12-20T08:32:54;6.40;;;3.70;;
37203;SDS011;23098;48.054;10.636;2022-12-20T08:35:21;7.45;;;4.43;;
37203;SDS011;23098;48.054;10.636;2022-12-20T08:37:46;5.15;;;2.83;;
37203;SDS011;23098;48.054;10.636;2022-12-20T08:40:14;6.97;;;3.50;;
37203;SDS011;23098;48.054;10.636;2022-12-20T08:42:40;8.18;;;3.83;;
37203;SDS011;23098;48.054;10.636;2022-12-20T08:45:06;9.15;;;5.18;;
37203;SDS011;23098;48.054;10.636;2022-12-20T08:47:47;5.30;;;3.45;;
37203;SDS011;23098;48.054;10.636;2022-12-20T08:50:15;4.65;;;2.80;;
37203;SDS011;23098;48.054;10.636;2022-12-20T08:52:44;5.75;;;2.58;;
37203;SDS011;23098;48.054;10.636;2022-12-20T08:55:10;4.40;;;2.67;;
37203;SDS011;23098;48.054;10.636;2022-12-20T08:57:35;4.10;;;2.40;;
37203;SDS011;23098;48.054;10.636;2022-12-20T09:00:01;4.72;;;2.45;;
37203;SDS011;23098;48.054;10.636;2022-12-20T09:02:27;4.47;;;2.38;;
37203;SDS011;23098;48.054;10.636;2022-12-20T09:04:53;4.75;;;2.30;;
37203;SDS011;23098;48.054;10.636;2022-12-20T09:07:19;4.95;;;2.47;;
37203;SDS011;23098;48.054;10.636;2022-12-20T09:09:45;4.75;;;2.50;;
37203;SDS011;23098;48.054;10.636;2022-12-20T09:12:15;3.85;;;2.53;;
37203;SDS011;23098;48.054;10.636;2022-12-20T09:14:42;3.13;;;2.20;;
37203;SDS011;23098;48.054;10.636;2022-12-20T09:17:07;5.15;;;3.10;;
37203;SDS011;23098;48.054;10.636;2022-12-20T09:19:33;12.32;;;5.18;;
37203;SDS011;23098;48.054;10.636;2022-12-20T09:21:58;10.40;;;4.95;;
37203;SDS011;23098;48.054;10.636;2022-12-20T09:24:24;8.52;;;4.63;;
37203;SDS011;23098;48.054;10.636;2022-12-20T09:26:49;8.27;;;4.95;;
37203;SDS011;23098;48.054;10.636;2022-12-20T09:29:15;4.28;;;3.10;;
37203;SDS011;23098;48.054;10.636;2022-12-20T09:31:40;6.07;;;3.25;;
37203;SDS011;23098;48.054;10.636;2022-12-20T09:34:07;5.78;;;2.80;;
37203;SDS011;23098;48.054;10.636;2022-12-20T09:36:34;3.97;;;2.83;;
37203;SDS011;23098;48.054;10.636;2022-12-20T09:39:00;6.30;;;3.60;;
37203;SDS011;23098;48.054;10.636;2022-12-20T09:41:39;5.18;;;2.65;;
37203;SDS011;23098;48.054;10.636;2022-12-20T09:44:11;8.98;;;4.90;;
37203;SDS011;23098;48.054;10.636;2022-12-20T09:46:51;59.63;;;28.02;;
37203;SDS011;23098;48.054;10.636;2022-12-20T09:49:26;72.03;;;34.47;;
37203;SDS011;23098;48.054;10.636;2022-12-20T09:54:43;47.03;;;23.35;;
37203;SDS011;23098;48.054;10.636;2022-12-20T09:57:24;34.20;;;17.52;;
37203;SDS011;23098;48.054;10.636;2022-12-20T10:02:38;10.45;;;5.78;;
37203;SDS011;23098;48.054;10.636;2022-12-20T10:05:15;12.10;;;6.22;;
37203;SDS011;23098;48.054;10.636;2022-12-20T10:07:54;9.05;;;5.28;;
37203;SDS011;23098;48.054;10.636;2022-12-20T10:22:06;8.70;;;4.28;;
37203;SDS011;23098;48.054;10.636;2022-12-20T10:24:38;6.82;;;4.28;;
37203;SDS011;23098;48.054;10.636;2022-12-20T10:27:13;6.03;;;3.83;;
37203;SDS011;23098;48.054;10.636;2022-12-20T10:29:41;4.25;;;3.20;;
37203;SDS011;23098;48.054;10.636;2022-12-20T10:32:10;5.75;;;3.53;;
37203;SDS011;23098;48.054;10.636;2022-12-20T10:34:51;5.13;;;3.25;;
37203;SDS011;23098;48.054;10.636;2022-12-20T10:37:21;6.13;;;3.75;;
37203;SDS011;23098;48.054;10.636;2022-12-20T10:39:47;5.65;;;3.40;;
37203;SDS011;23098;48.054;10.636;2022-12-20T10:42:22;4.68;;;3.30;;
37203;SDS011;23098;48.054;10.636;2022-12-20T10:45:02;4.60;;;3.10;;
37203;SDS011;23098;48.054;10.636;2022-12-20T10:47:45;4.70;;;3.50;;
37203;SDS011;23098;48.054;10.636;2022-12-20T10:50:19;5.45;;;3.50;;
37203;SDS011;23098;48.054;10.636;2022-12-20T10:55:32;5.38;;;3.65;;
37203;SDS011;23098;48.054;10.636;2022-12-20T10:58:12;5.28;;;3.47;;
37203;SDS011;23098;48.054;10.636;2022-12-20T11:00:41;7.10;;;4.22;;
37203;SDS011;23098;48.054;10.636;2022-12-20T11:03:10;4.70;;;3.63;;
37203;SDS011;23098;48.054;10.636;2022-12-20T11:05:51;5.22;;;3.22;;
37203;SDS011;23098;48.054;10.636;2022-12-20T11:08:19;6.22;;;3.97;;
37203;SDS011;23098;48.054;10.636;2022-12-20T11:10:45;5.60;;;3.53;;
37203;SDS011;23098;48.054;10.636;2022-12-20T11:13:18;8.52;;;4.05;;
37203;SDS011;23098;48.054;10.636;2022-12-20T11:15:49;7.13;;;4.90;;
37203;SDS011;23098;48.054;10.636;2022-12-20T11:18:19;9.77;;;4.45;;
37203;SDS011;23098;48.054;10.636;2022-12-20T11:21:05;6.57;;;4.35;;
37203;SDS011;23098;48.054;10.636;2022-12-20T11:24:03;8.70;;;4.10;;
37203;SDS011;23098;48.054;10.636;2022-12-20T11:26:57;7.30;;;4.25;;
37203;SDS011;23098;48.054;10.636;2022-12-20T11:41:36;10.05;;;4.13;;
37203;SDS011;23098;48.054;10.636;2022-12-20T11:50:26;7.65;;;3.92;;
37203;SDS011;23098;48.054;10.636;2022-12-20T11:53:06;8.65;;;4.78;;
37203;SDS011;23098;48.054;10.636;2022-12-20T11:55:38;9.48;;;4.55;;
37203;SDS011;23098;48.054;10.636;2022-12-20T11:58:12;8.18;;;4.80;;
37203;SDS011;23098;48.054;10.636;2022-12-20T12:00:46;7.95;;;4.95;;
37203;SDS011;23098;48.054;10.636;2022-12-20T12:03:37;6.75;;;4.45;;
37203;SDS011;23098;48.054;10.636;2022-12-20T12:06:26;7.28;;;4.25;;
37203;SDS011;23098;48.054;10.636;2022-12-20T12:12:05;7.93;;;5.18;;
37203;SDS011;23098;48.054;10.636;2022-12-20T12:14:52;8.57;;;5.30;;
37203;SDS011;23098;48.054;10.636;2022-12-20T12:20:22;9.27;;;5.40;;
37203;SDS011;23098;48.054;10.636;2022-12-20T12:23:00;10.15;;;5.68;;
37203;SDS011;23098;48.054;10.636;2022-12-20T12:25:31;9.73;;;5.53;;
37203;SDS011;23098;48.054;10.636;2022-12-20T12:27:57;7.13;;;4.82;;
37203;SDS011;23098;48.054;10.636;2022-12-20T12:30:22;10.55;;;5.75;;
37203;SDS011;23098;48.054;10.636;2022-12-20T12:32:52;8.60;;;5.38;;
37203;SDS011;23098;48.054;10.636;2022-12-20T12:46:14;14.07;;;6.82;;
37203;SDS011;23098;48.054;10.636;2022-12-20T12:48:43;11.38;;;6.05;;
37203;SDS011;23098;48.054;10.636;2022-12-20T12:51:16;11.50;;;5.85;;
37203;SDS011;23098;48.054;10.636;2022-12-20T12:56:41;10.75;;;6.45;;
37203;SDS011;23098;48.054;10.636;2022-12-20T13:04:29;24.35;;;10.43;;
37203;SDS011;23098;48.054;10.636;2022-12-20T13:07:24;26.60;;;11.38;;
37203;SDS011;23098;48.054;10.636;2022-12-20T13:09:56;33.47;;;12.15;;
37203;SDS011;23098;48.054;10.636;2022-12-20T13:15:01;39.80;;;14.95;;
37203;SDS011;23098;48.054;10.636;2022-12-20T13:17:54;14.70;;;7.10;;
37203;SDS011;23098;48.054;10.636;2022-12-20T13:20:22;12.30;;;6.95;;
37203;SDS011;23098;48.054;10.636;2022-12-20T13:25:45;18.83;;;10.30;;
37203;SDS011;23098;48.054;10.636;2022-12-20T13:30:44;14.00;;;8.05;;
37203;SDS011;23098;48.054;10.636;2022-12-20T13:33:37;14.93;;;7.97;;
37203;SDS011;23098;48.054;10.636;2022-12-20T13:38:37;22.52;;;12.23;;
37203;SDS011;23098;48.054;10.636;2022-12-20T13:41:22;18.33;;;10.73;;
37203;SDS011;23098;48.054;10.636;2022-12-20T13:44:08;19.00;;;9.95;;
37203;SDS011;23098;48.054;10.636;2022-12-20T13:46:40;20.98;;;11.80;;
37203;SDS011;23098;48.054;10.636;2022-12-20T13:49:18;28.38;;;15.32;;
37203;SDS011;23098;48.054;10.636;2022-12-20T13:54:40;56.88;;;21.75;;
37203;SDS011;23098;48.054;10.636;2022-12-20T13:57:10;22.13;;;10.10;;
37203;SDS011;23098;48.054;10.636;2022-12-20T13:59:42;45.28;;;19.17;;
37203;SDS011;23098;48.054;10.636;2022-12-20T14:02:16;35.75;;;18.83;;
37203;SDS011;23098;48.054;10.636;2022-12-20T14:04:56;25.15;;;13.90;;
37203;SDS011;23098;48.054;10.636;2022-12-20T14:07:27;18.13;;;11.00;;
37203;SDS011;23098;48.054;10.636;2022-12-20T14:10:15;17.42;;;10.95;;
37203;SDS011;23098;48.054;10.636;2022-12-20T14:12:59;16.98;;;11.00;;
37203;SDS011;23098;48.054;10.636;2022-12-20T14:15:28;17.27;;;9.57;;
37203;SDS011;23098;48.054;10.636;2022-12-20T14:18:18;25.30;;;14.00;;
37203;SDS011;23098;48.054;10.636;2022-12-20T14:21:03;16.42;;;10.30;;
37203;SDS011;23098;48.054;10.636;2022-12-20T14:23:50;16.45;;;10.55;;
37203;SDS011;23098;48.054;10.636;2022-12-20T14:26:19;18.38;;;11.90;;
37203;SDS011;23098;48.054;10.636;2022-12-20T14:28:49;25.67;;;15.63;;
37203;SDS011;23098;48.054;10.636;2022-12-20T14:31:22;46.20;;;26.67;;
37203;SDS011;23098;48.054;10.636;2022-12-20T14:36:35;28.27;;;12.55;;
37203;SDS011;23098;48.054;10.636;2022-12-20T14:39:26;14.68;;;8.77;;
37203;SDS011;23098;48.054;10.636;2022-12-20T14:42:00;16.65;;;9.93;;
37203;SDS011;23098;48.054;10.636;2022-12-20T14:44:46;20.65;;;11.40;;
37203;SDS011;23098;48.054;10.636;2022-12-20T14:49:46;21.23;;;12.23;;
37203;SDS011;23098;48.054;10.636;2022-12-20T14:52:15;29.65;;;15.23;;
37203;SDS011;23098;48.054;10.636;2022-12-20T14:57:30;20.88;;;11.52;;
37203;SDS011;23098;48.054;10.636;2022-12-20T15:08:08;19.58;;;11.27;;
37203;SDS011;23098;48.054;10.636;2022-12-20T15:10:49;21.85;;;13.00;;
37203;SDS011;23098;48.054;10.636;2022-12-20T15:13:46;40.33;;;18.63;;
37203;SDS011;23098;48.054;10.636;2022-12-20T15:16:16;54.35;;;24.65;;
37203;SDS011;23098;48.054;10.636;2022-12-20T15:18:44;26.13;;;13.57;;
37203;SDS011;23098;48.054;10.636;2022-12-20T15:21:19;17.42;;;10.35;;
37203;SDS011;23098;48.054;10.636;2022-12-20T15:23:55;23.52;;;12.27;;
37203;SDS011;23098;48.054;10.636;2022-12-20T15:26:23;16.70;;;10.38;;
37203;SDS011;23098;48.054;10.636;2022-12-20T15:28:51;13.63;;;9.15;;
37203;SDS011;23098;48.054;10.636;2022-12-20T15:31:17;12.43;;;8.73;;
37203;SDS011;23098;48.054;10.636;2022-12-20T15:33:44;14.20;;;9.43;;
37203;SDS011;23098;48.054;10.636;2022-12-20T15:36:21;20.13;;;10.95;;
37203;SDS011;23098;48.054;10.636;2022-12-20T15:38:50;21.95;;;11.10;;
37203;SDS011;23098;48.054;10.636;2022-12-20T15:41:24;23.80;;;12.75;;
37203;SDS011;23098;48.054;10.636;2022-12-20T15:43:55;21.88;;;12.20;;
37203;SDS011;23098;48.054;10.636;2022-12-20T15:46:23;23.52;;;13.27;;
37203;SDS011;23098;48.054;10.636;2022-12-20T15:48:50;22.50;;;13.00;;
37203;SDS011;23098;48.054;10.636;2022-12-20T15:51:37;21.65;;;12.13;;
37203;SDS011;23098;48.054;10.636;2022-12-20T15:54:04;17.00;;;10.27;;
37203;SDS011;23098;48.054;10.636;2022-12-20T15:56:38;16.60;;;9.70;;
37203;SDS011;23098;48.054;10.636;2022-12-20T15:59:03;14.10;;;9.93;;
37203;SDS011;23098;48.054;10.636;2022-12-20T16:01:36;20.13;;;11.35;;
37203;SDS011;23098;48.054;10.636;2022-12-20T16:04:02;17.42;;;11.38;;
37203;SDS011;23098;48.054;10.636;2022-12-20T16:06:29;18.77;;;12.27;;
37203;SDS011;23098;48.054;10.636;2022-12-20T16:08:55;18.50;;;11.95;;
37203;SDS011;23098;48.054;10.636;2022-12-20T16:11:28;18.27;;;10.77;;
37203;SDS011;23098;48.054;10.636;2022-12-20T16:13:55;21.65;;;11.18;;
37203;SDS011;23098;48.054;10.636;2022-12-20T16:16:25;20.60;;;12.00;;
37203;SDS011;23098;48.054;10.636;2022-12-20T16:18:58;18.08;;;10.80;;
37203;SDS011;23098;48.054;10.636;2022-12-20T16:21:26;18.98;;;11.02;;
37203;SDS011;23098;48.054;10.636;2022-12-20T16:23:55;18.00;;;10.90;;
37203;SDS011;23098;48.054;10.636;2022-12-20T16:26:22;17.40;;;9.55;;
37203;SDS011;23098;48.054;10.636;2022-12-20T16:28:49;13.35;;;9.05;;
37203;SDS011;23098;48.054;10.636;2022-12-20T16:31:29;14.88;;;9.80;;
37203;SDS011;23098;48.054;10.636;2022-12-20T16:33:57;17.05;;;9.85;;
37203;SDS011;23098;48.054;10.636;2022-12-20T16:36:23;16.98;;;10.15;;
37203;SDS011;23098;48.054;10.636;2022-12-20T16:38:50;20.85;;;11.45;;
37203;SDS011;23098;48.054;10.636;2022-12-20T16:41:18;23.45;;;13.93;;
37203;SDS011;23098;48.054;10.636;2022-12-20T16:43:46;24.02;;;14.02;;
37203;SDS011;23098;48.054;10.636;2022-12-20T16:46:13;20.70;;;12.93;;
37203;SDS011;23098;48.054;10.636;2022-12-20T16:48:40;24.55;;;15.15;;
37203;SDS011;23098;48.054;10.636;2022-12-20T16:53:53;20.80;;;11.95;;
37203;SDS011;23098;48.054;10.636;2022-12-20T16:56:24;19.30;;;11.20;;
37203;SDS011;23098;48.054;10.636;2022-12-20T16:58:50;17.55;;;10.82;;
37203;SDS011;23098;48.054;10.636;2022-12-20T17:01:16;18.52;;;11.05;;
37203;SDS011;23098;48.054;10.636;2022-12-20T17:03:44;18.95;;;10.30;;
37203;SDS011;23098;48.054;10.636;2022-12-20T17:06:13;20.92;;;10.43;;
37203;SDS011;23098;48.054;10.636;2022-12-20T17:08:40;19.63;;;11.57;;
37203;SDS011;23098;48.054;10.636;2022-12-20T17:11:12;17.17;;;10.73;;
37203;SDS011;23098;48.054;10.636;2022-12-20T17:13:40;22.23;;;13.90;;
37203;SDS011;23098;48.054;10.636;2022-12-20T17:16:08;23.52;;;14.40;;
37203;SDS011;23098;48.054;10.636;2022-12-20T17:18:36;27.50;;;15.68;;
37203;SDS011;23098;48.054;10.636;2022-12-20T17:21:03;26.70;;;15.10;;
37203;SDS011;23098;48.054;10.636;2022-12-20T17:23:51;24.17;;;13.85;;
37203;SDS011;23098;48.054;10.636;2022-12-20T17:26:23;21.02;;;12.73;;
37203;SDS011;23098;48.054;10.636;2022-12-20T17:28:50;22.42;;;13.07;;
37203;SDS011;23098;48.054;10.636;2022-12-20T17:33:50;19.80;;;11.68;;
37203;SDS011;23098;48.054;10.636;2022-12-20T17:36:16;19.15;;;10.38;;
37203;SDS011;23098;48.054;10.636;2022-12-20T17:38:42;18.60;;;10.27;;
37203;SDS011;23098;48.054;10.636;2022-12-20T17:41:19;16.17;;;10.20;;
37203;SDS011;23098;48.054;10.636;2022-12-20T17:43:47;17.73;;;11.20;;
37203;SDS011;23098;48.054;10.636;2022-12-20T17:46:12;19.95;;;11.90;;
37203;SDS011;23098;48.054;10.636;2022-12-20T17:48:38;26.52;;;15.63;;
37203;SDS011;23098;48.054;10.636;2022-12-20T17:51:17;21.42;;;13.50;;
37203;SDS011;23098;48.054;10.636;2022-12-20T17:53:55;23.20;;;13.15;;
37203;SDS011;23098;48.054;10.636;2022-12-20T17:56:23;23.10;;;13.00;;
37203;SDS011;23098;48.054;10.636;2022-12-20T17:58:50;24.20;;;13.68;;
37203;SDS011;23098;48.054;10.636;2022-12-20T18:01:19;22.85;;;13.15;;
37203;SDS011;23098;48.054;10.636;2022-12-20T18:03:50;23.55;;;13.15;;
37203;SDS011;23098;48.054;10.636;2022-12-20T18:06:17;23.83;;;13.23;;
37203;SDS011;23098;48.054;10.636;2022-12-20T18:08:48;24.35;;;13.93;;
37203;SDS011;23098;48.054;10.636;2022-12-20T18:13:42;21.92;;;11.68;;
37203;SDS011;23098;48.054;10.636;2022-12-20T18:16:12;22.55;;;12.90;;
37203;SDS011;23098;48.054;10.636;2022-12-20T18:18:40;18.95;;;11.30;;
37203;SDS011;23098;48.054;10.636;2022-12-20T18:21:06;26.95;;;14.40;;
37203;SDS011;23098;48.054;10.636;2022-12-20T18:23:38;26.98;;;15.93;;
37203;SDS011;23098;48.054;10.636;2022-12-20T18:26:05;26.27;;;15.13;;
37203;SDS011;23098;48.054;10.636;2022-12-20T18:28:36;23.90;;;13.85;;
37203;SDS011;23098;48.054;10.636;2022-12-20T18:31:03;24.88;;;13.40;;
37203;SDS011;23098;48.054;10.636;2022-12-20T18:33:32;18.95;;;11.32;;
37203;SDS011;23098;48.054;10.636;2022-12-20T18:36:22;18.00;;;10.85;;
37203;SDS011;23098;48.054;10.636;2022-12-20T18:38:46;17.20;;;10.27;;
37203;SDS011;23098;48.054;10.636;2022-12-20T18:41:13;17.67;;;10.00;;
37203;SDS011;23098;48.054;10.636;2022-12-20T18:43:41;20.92;;;13.63;;
37203;SDS011;23098;48.054;10.636;2022-12-20T18:46:11;32.63;;;20.08;;
37203;SDS011;23098;48.054;10.636;2022-12-20T18:48:39;18.20;;;10.77;;
37203;SDS011;23098;48.054;10.636;2022-12-20T18:51:06;16.77;;;10.63;;
37203;SDS011;23098;48.054;10.636;2022-12-20T18:53:37;15.88;;;10.13;;
37203;SDS011;23098;48.054;10.636;2022-12-20T18:56:04;18.42;;;11.18;;
37203;SDS011;23098;48.054;10.636;2022-12-20T18:58:31;18.77;;;10.55;;
37203;SDS011;23098;48.054;10.636;2022-12-20T19:00:58;22.23;;;11.75;;
37203;SDS011;23098;48.054;10.636;2022-12-20T19:03:28;30.85;;;14.02;;
37203;SDS011;23098;48.054;10.636;2022-12-20T19:05:54;23.67;;;14.63;;
37203;SDS011;23098;48.054;10.636;2022-12-20T19:08:21;24.30;;;14.73;;
37203;SDS011;23098;48.054;10.636;2022-12-20T19:10:47;21.83;;;12.98;;
37203;SDS011;23098;48.054;10.636;2022-12-20T19:13:13;17.25;;;10.10;;
37203;SDS011;23098;48.054;10.636;2022-12-20T19:15:41;21.98;;;11.82;;
37203;SDS011;23098;48.054;10.636;2022-12-20T19:18:07;16.50;;;8.40;;
37203;SDS011;23098;48.054;10.636;2022-12-20T19:20:33;15.07;;;7.60;;
37203;SDS011;23098;48.054;10.636;2022-12-20T19:23:00;12.20;;;7.20;;
37203;SDS011;23098;48.054;10.636;2022-12-20T19:25:25;13.68;;;8.55;;
37203;SDS011;23098;48.054;10.636;2022-12-20T19:27:51;13.90;;;7.25;;
37203;SDS011;23098;48.054;10.636;2022-12-20T19:30:17;12.50;;;7.82;;
37203;SDS011;23098;48.054;10.636;2022-12-20T19:32:43;15.45;;;8.68;;
37203;SDS011;23098;48.054;10.636;2022-12-20T19:35:08;16.85;;;10.25;;
37203;SDS011;23098;48.054;10.636;2022-12-20T19:37:34;12.13;;;7.32;;
37203;SDS011;23098;48.054;10.636;2022-12-20T19:40:00;12.48;;;7.25;;
37203;SDS011;23098;48.054;10.636;2022-12-20T19:42:25;11.18;;;6.05;;
37203;SDS011;23098;48.054;10.636;2022-12-20T19:44:51;10.73;;;6.90;;